sensor_id;sensor_type;location;lat;lon;timestamp;P1;durP1;ratioP1;P2;durP2;ratioP2
35245;SDS011;21379;50.962;6.960;2022-12-18T00:01:58;8.82;;;4.78;;
35245;SDS011;21379;50.962;6.960;2022-12-18T00:04:26;10.32;;;6.13;;
35245;SDS011;21379;50.962;6.960;2022-12-18T00:06:53;14.50;;;5.68;;
35245;SDS011;21379;50.962;6.960;2022-12-18T00:09:20;10.52;;;6.03;;
35245;SDS011;21379;50.962;6.960;2022-12-18T00:11:47;13.27;;;5.35;;
35245;SDS011;21379;50.962;6.960;2022-12-18T00:14:14;23.58;;;6.32;;
35245;SDS011;21379;50.962;6.960;2022-12-18T00:16:44;13.65;;;5.32;;
35245;SDS011;21379;50.962;6.960;2022-12-18T00:19:12;14.75;;;5.88;;
35245;SDS011;21379;50.962;6.960;2022-12-18T00:21:39;11.98;;;5.75;;
35245;SDS011;21379;50.962;6.960;2022-12-18T00:24:06;17.17;;;6.80;;
35245;SDS011;21379;50.962;6.960;2022-12-18T00:26:34;15.82;;;5.82;;
35245;SDS011;21379;50.962;6.960;2022-12-18T00:29:03;15.93;;;6.22;;
35245;SDS011;21379;50.962;6.960;2022-12-18T00:31:32;11.45;;;5.35;;
35245;SDS011;21379;50.962;6.960;2022-12-18T00:34:01;8.23;;;4.38;;
35245;SDS011;21379;50.962;6.960;2022-12-18T00:36:29;17.63;;;6.03;;
35245;SDS011;21379;50.962;6.960;2022-12-18T00:38:57;12.55;;;5.47;;
35245;SDS011;21379;50.962;6.960;2022-12-18T00:41:24;17.20;;;8.23;;
35245;SDS011;21379;50.962;6.960;2022-12-18T00:46:36;17.80;;;6.88;;
35245;SDS011;21379;50.962;6.960;2022-12-18T00:49:05;13.88;;;4.60;;
35245;SDS011;21379;50.962;6.960;2022-12-18T00:51:34;14.13;;;5.18;;
35245;SDS011;21379;50.962;6.960;2022-12-18T00:54:01;13.02;;;5.07;;
35245;SDS011;21379;50.962;6.960;2022-12-18T00:56:28;8.23;;;4.97;;
35245;SDS011;21379;50.962;6.960;2022-12-18T00:58:55;12.75;;;5.13;;
35245;SDS011;21379;50.962;6.960;2022-12-18T01:01:22;17.63;;;7.47;;
35245;SDS011;21379;50.962;6.960;2022-12-18T01:03:48;15.80;;;6.40;;
35245;SDS011;21379;50.962;6.960;2022-12-18T01:06:17;17.85;;;5.22;;
35245;SDS011;21379;50.962;6.960;2022-12-18T01:08:44;15.15;;;6.78;;
35245;SDS011;21379;50.962;6.960;2022-12-18T01:11:11;29.15;;;7.35;;
35245;SDS011;21379;50.962;6.960;2022-12-18T01:13:39;8.80;;;4.85;;
35245;SDS011;21379;50.962;6.960;2022-12-18T01:16:07;12.82;;;5.53;;
35245;SDS011;21379;50.962;6.960;2022-12-18T01:18:34;13.77;;;6.13;;
35245;SDS011;21379;50.962;6.960;2022-12-18T01:21:05;16.48;;;6.38;;
35245;SDS011;21379;50.962;6.960;2022-12-18T01:23:34;10.98;;;5.18;;
35245;SDS011;21379;50.962;6.960;2022-12-18T01:26:05;12.18;;;5.03;;
35245;SDS011;21379;50.962;6.960;2022-12-18T01:28:32;10.48;;;5.35;;
35245;SDS011;21379;50.962;6.960;2022-12-18T01:31:08;10.75;;;5.63;;
35245;SDS011;21379;50.962;6.960;2022-12-18T01:33:36;15.18;;;5.38;;
35245;SDS011;21379;50.962;6.960;2022-12-18T01:36:03;13.30;;;5.65;;
35245;SDS011;21379;50.962;6.960;2022-12-18T01:38:30;13.52;;;6.97;;
35245;SDS011;21379;50.962;6.960;2022-12-18T01:40:59;18.63;;;7.07;;
35245;SDS011;21379;50.962;6.960;2022-12-18T01:43:40;11.98;;;6.00;;
35245;SDS011;21379;50.962;6.960;2022-12-18T01:46:11;10.43;;;5.32;;
35245;SDS011;21379;50.962;6.960;2022-12-18T01:48:39;11.40;;;4.60;;
35245;SDS011;21379;50.962;6.960;2022-12-18T01:51:07;8.25;;;4.45;;
35245;SDS011;21379;50.962;6.960;2022-12-18T01:53:36;19.70;;;6.85;;
35245;SDS011;21379;50.962;6.960;2022-12-18T01:56:06;10.55;;;5.97;;
35245;SDS011;21379;50.962;6.960;2022-12-18T01:58:35;10.32;;;5.45;;
35245;SDS011;21379;50.962;6.960;2022-12-18T02:01:07;17.20;;;6.03;;
35245;SDS011;21379;50.962;6.960;2022-12-18T02:03:34;12.25;;;6.38;;
35245;SDS011;21379;50.962;6.960;2022-12-18T02:06:04;12.60;;;6.13;;
35245;SDS011;21379;50.962;6.960;2022-12-18T02:08:37;8.70;;;4.82;;
35245;SDS011;21379;50.962;6.960;2022-12-18T02:11:15;19.88;;;5.43;;
35245;SDS011;21379;50.962;6.960;2022-12-18T02:13:46;9.43;;;4.05;;
35245;SDS011;21379;50.962;6.960;2022-12-18T02:16:21;15.40;;;6.45;;
35245;SDS011;21379;50.962;6.960;2022-12-18T02:18:53;12.70;;;5.85;;
35245;SDS011;21379;50.962;6.960;2022-12-18T02:21:25;10.93;;;5.50;;
35245;SDS011;21379;50.962;6.960;2022-12-18T02:24:03;18.20;;;7.10;;
35245;SDS011;21379;50.962;6.960;2022-12-18T02:26:43;12.82;;;4.22;;
35245;SDS011;21379;50.962;6.960;2022-12-18T02:29:15;9.25;;;5.78;;
35245;SDS011;21379;50.962;6.960;2022-12-18T02:31:47;14.70;;;6.20;;
35245;SDS011;21379;50.962;6.960;2022-12-18T02:34:18;17.13;;;7.15;;
35245;SDS011;21379;50.962;6.960;2022-12-18T02:36:48;13.30;;;5.18;;
35245;SDS011;21379;50.962;6.960;2022-12-18T02:39:17;11.23;;;5.43;;
35245;SDS011;21379;50.962;6.960;2022-12-18T02:41:47;18.30;;;5.93;;
35245;SDS011;21379;50.962;6.960;2022-12-18T02:44:14;13.48;;;4.93;;
35245;SDS011;21379;50.962;6.960;2022-12-18T02:46:41;8.82;;;5.03;;
35245;SDS011;21379;50.962;6.960;2022-12-18T02:49:12;11.43;;;5.93;;
35245;SDS011;21379;50.962;6.960;2022-12-18T02:51:52;13.25;;;5.50;;
35245;SDS011;21379;50.962;6.960;2022-12-18T02:54:26;15.93;;;6.13;;
35245;SDS011;21379;50.962;6.960;2022-12-18T02:57:08;16.30;;;4.72;;
35245;SDS011;21379;50.962;6.960;2022-12-18T02:59:44;14.95;;;6.28;;
35245;SDS011;21379;50.962;6.960;2022-12-18T03:02:20;10.95;;;5.18;;
35245;SDS011;21379;50.962;6.960;2022-12-18T03:04:53;12.82;;;4.55;;
35245;SDS011;21379;50.962;6.960;2022-12-18T03:07:28;13.85;;;5.72;;
35245;SDS011;21379;50.962;6.960;2022-12-18T03:10:05;8.93;;;4.20;;
35245;SDS011;21379;50.962;6.960;2022-12-18T03:12:36;7.13;;;4.18;;
35245;SDS011;21379;50.962;6.960;2022-12-18T03:15:07;21.83;;;6.65;;
35245;SDS011;21379;50.962;6.960;2022-12-18T03:17:38;17.60;;;5.63;;
35245;SDS011;21379;50.962;6.960;2022-12-18T03:20:10;9.25;;;4.95;;
35245;SDS011;21379;50.962;6.960;2022-12-18T03:22:40;14.68;;;5.63;;
35245;SDS011;21379;50.962;6.960;2022-12-18T03:25:09;12.35;;;4.20;;
35245;SDS011;21379;50.962;6.960;2022-12-18T03:27:40;13.15;;;6.10;;
35245;SDS011;21379;50.962;6.960;2022-12-18T03:30:14;13.85;;;6.10;;
35245;SDS011;21379;50.962;6.960;2022-12-18T03:32:43;14.52;;;5.47;;
35245;SDS011;21379;50.962;6.960;2022-12-18T03:35:14;12.85;;;6.25;;
35245;SDS011;21379;50.962;6.960;2022-12-18T03:37:54;10.55;;;6.07;;
35245;SDS011;21379;50.962;6.960;2022-12-18T03:40:22;14.43;;;5.82;;
35245;SDS011;21379;50.962;6.960;2022-12-18T03:42:58;8.90;;;5.15;;
35245;SDS011;21379;50.962;6.960;2022-12-18T03:45:31;9.52;;;5.43;;
35245;SDS011;21379;50.962;6.960;2022-12-18T03:48:01;12.70;;;5.13;;
35245;SDS011;21379;50.962;6.960;2022-12-18T03:50:35;14.93;;;4.72;;
35245;SDS011;21379;50.962;6.960;2022-12-18T03:53:10;9.85;;;4.63;;
35245;SDS011;21379;50.962;6.960;2022-12-18T03:55:46;17.15;;;7.30;;
35245;SDS011;21379;50.962;6.960;2022-12-18T03:58:17;12.13;;;4.78;;
35245;SDS011;21379;50.962;6.960;2022-12-18T04:00:47;16.60;;;4.78;;
35245;SDS011;21379;50.962;6.960;2022-12-18T04:03:15;12.63;;;5.50;;
35245;SDS011;21379;50.962;6.960;2022-12-18T04:05:44;16.65;;;5.25;;
35245;SDS011;21379;50.962;6.960;2022-12-18T04:08:14;28.05;;;5.40;;
35245;SDS011;21379;50.962;6.960;2022-12-18T04:10:41;11.18;;;4.32;;
35245;SDS011;21379;50.962;6.960;2022-12-18T04:13:08;11.88;;;4.15;;
35245;SDS011;21379;50.962;6.960;2022-12-18T04:15:37;13.07;;;5.32;;
35245;SDS011;21379;50.962;6.960;2022-12-18T04:18:05;17.08;;;7.10;;
35245;SDS011;21379;50.962;6.960;2022-12-18T04:20:33;13.98;;;6.97;;
35245;SDS011;21379;50.962;6.960;2022-12-18T04:23:00;19.17;;;6.18;;
35245;SDS011;21379;50.962;6.960;2022-12-18T04:25:27;11.75;;;5.68;;
35245;SDS011;21379;50.962;6.960;2022-12-18T04:27:53;9.18;;;5.38;;
35245;SDS011;21379;50.962;6.960;2022-12-18T04:30:20;14.82;;;6.05;;
35245;SDS011;21379;50.962;6.960;2022-12-18T04:32:48;9.20;;;4.95;;
35245;SDS011;21379;50.962;6.960;2022-12-18T04:35:15;13.77;;;7.38;;
35245;SDS011;21379;50.962;6.960;2022-12-18T04:37:42;12.02;;;5.15;;
35245;SDS011;21379;50.962;6.960;2022-12-18T04:40:09;11.77;;;5.55;;
35245;SDS011;21379;50.962;6.960;2022-12-18T04:42:38;14.35;;;5.18;;
35245;SDS011;21379;50.962;6.960;2022-12-18T04:45:05;11.27;;;4.80;;
35245;SDS011;21379;50.962;6.960;2022-12-18T04:47:33;13.40;;;5.95;;
35245;SDS011;21379;50.962;6.960;2022-12-18T04:50:01;8.80;;;4.90;;
35245;SDS011;21379;50.962;6.960;2022-12-18T04:52:29;21.10;;;6.35;;
35245;SDS011;21379;50.962;6.960;2022-12-18T04:54:55;12.32;;;6.45;;
35245;SDS011;21379;50.962;6.960;2022-12-18T04:57:22;15.95;;;6.07;;
35245;SDS011;21379;50.962;6.960;2022-12-18T04:59:49;19.35;;;6.93;;
35245;SDS011;21379;50.962;6.960;2022-12-18T05:02:16;12.27;;;5.07;;
35245;SDS011;21379;50.962;6.960;2022-12-18T05:04:43;13.45;;;5.05;;
35245;SDS011;21379;50.962;6.960;2022-12-18T05:07:11;20.05;;;6.25;;
35245;SDS011;21379;50.962;6.960;2022-12-18T05:09:37;8.13;;;3.95;;
35245;SDS011;21379;50.962;6.960;2022-12-18T05:12:04;13.55;;;4.70;;
35245;SDS011;21379;50.962;6.960;2022-12-18T05:14:31;13.70;;;4.88;;
35245;SDS011;21379;50.962;6.960;2022-12-18T05:16:58;13.85;;;5.38;;
35245;SDS011;21379;50.962;6.960;2022-12-18T05:19:25;11.40;;;4.15;;
35245;SDS011;21379;50.962;6.960;2022-12-18T05:21:52;15.00;;;4.63;;
35245;SDS011;21379;50.962;6.960;2022-12-18T05:24:20;8.75;;;5.10;;
35245;SDS011;21379;50.962;6.960;2022-12-18T05:26:47;6.88;;;4.68;;
35245;SDS011;21379;50.962;6.960;2022-12-18T05:29:13;11.40;;;4.80;;
35245;SDS011;21379;50.962;6.960;2022-12-18T05:31:40;18.20;;;6.35;;
35245;SDS011;21379;50.962;6.960;2022-12-18T05:34:07;9.63;;;4.35;;
35245;SDS011;21379;50.962;6.960;2022-12-18T05:36:34;9.70;;;4.53;;
35245;SDS011;21379;50.962;6.960;2022-12-18T05:39:01;7.88;;;4.82;;
35245;SDS011;21379;50.962;6.960;2022-12-18T05:41:29;9.32;;;4.55;;
35245;SDS011;21379;50.962;6.960;2022-12-18T05:43:56;10.82;;;3.88;;
35245;SDS011;21379;50.962;6.960;2022-12-18T05:46:23;12.07;;;4.65;;
35245;SDS011;21379;50.962;6.960;2022-12-18T05:48:50;11.63;;;4.57;;
35245;SDS011;21379;50.962;6.960;2022-12-18T05:51:19;9.20;;;4.10;;
35245;SDS011;21379;50.962;6.960;2022-12-18T05:53:47;6.07;;;4.32;;
35245;SDS011;21379;50.962;6.960;2022-12-18T05:56:15;9.80;;;4.15;;
35245;SDS011;21379;50.962;6.960;2022-12-18T05:58:45;7.80;;;3.97;;
35245;SDS011;21379;50.962;6.960;2022-12-18T06:01:13;13.07;;;5.05;;
35245;SDS011;21379;50.962;6.960;2022-12-18T06:03:42;9.48;;;4.90;;
35245;SDS011;21379;50.962;6.960;2022-12-18T06:06:13;9.20;;;5.28;;
35245;SDS011;21379;50.962;6.960;2022-12-18T06:08:40;14.55;;;5.07;;
35245;SDS011;21379;50.962;6.960;2022-12-18T06:11:07;12.20;;;5.38;;
35245;SDS011;21379;50.962;6.960;2022-12-18T06:13:34;12.68;;;5.30;;
35245;SDS011;21379;50.962;6.960;2022-12-18T06:16:03;9.63;;;5.22;;
35245;SDS011;21379;50.962;6.960;2022-12-18T06:18:30;13.50;;;6.18;;
35245;SDS011;21379;50.962;6.960;2022-12-18T06:20:58;13.70;;;5.32;;
35245;SDS011;21379;50.962;6.960;2022-12-18T06:23:25;12.43;;;5.03;;
35245;SDS011;21379;50.962;6.960;2022-12-18T06:25:53;11.23;;;5.05;;
35245;SDS011;21379;50.962;6.960;2022-12-18T06:28:20;18.63;;;5.93;;
35245;SDS011;21379;50.962;6.960;2022-12-18T06:30:47;12.95;;;5.25;;
35245;SDS011;21379;50.962;6.960;2022-12-18T06:33:15;16.40;;;5.53;;
35245;SDS011;21379;50.962;6.960;2022-12-18T06:35:42;19.55;;;5.75;;
35245;SDS011;21379;50.962;6.960;2022-12-18T06:38:09;19.88;;;6.63;;
35245;SDS011;21379;50.962;6.960;2022-12-18T06:40:36;12.82;;;4.68;;
35245;SDS011;21379;50.962;6.960;2022-12-18T06:43:04;14.30;;;5.80;;
35245;SDS011;21379;50.962;6.960;2022-12-18T06:45:31;15.40;;;5.97;;
35245;SDS011;21379;50.962;6.960;2022-12-18T06:47:57;16.25;;;5.22;;
35245;SDS011;21379;50.962;6.960;2022-12-18T06:50:26;12.35;;;4.90;;
35245;SDS011;21379;50.962;6.960;2022-12-18T06:52:53;19.33;;;6.70;;
35245;SDS011;21379;50.962;6.960;2022-12-18T06:55:19;18.83;;;7.07;;
35245;SDS011;21379;50.962;6.960;2022-12-18T06:57:46;19.60;;;7.60;;
35245;SDS011;21379;50.962;6.960;2022-12-18T07:00:13;7.63;;;4.97;;
35245;SDS011;21379;50.962;6.960;2022-12-18T07:02:40;17.73;;;6.35;;
35245;SDS011;21379;50.962;6.960;2022-12-18T07:05:07;18.90;;;6.63;;
35245;SDS011;21379;50.962;6.960;2022-12-18T07:07:36;25.05;;;8.02;;
35245;SDS011;21379;50.962;6.960;2022-12-18T07:10:03;11.70;;;5.88;;
35245;SDS011;21379;50.962;6.960;2022-12-18T07:12:30;12.38;;;5.20;;
35245;SDS011;21379;50.962;6.960;2022-12-18T07:14:57;14.90;;;6.32;;
35245;SDS011;21379;50.962;6.960;2022-12-18T07:17:23;11.18;;;6.53;;
35245;SDS011;21379;50.962;6.960;2022-12-18T07:19:50;11.82;;;5.32;;
35245;SDS011;21379;50.962;6.960;2022-12-18T07:22:17;11.23;;;5.57;;
35245;SDS011;21379;50.962;6.960;2022-12-18T07:24:45;16.27;;;5.68;;
35245;SDS011;21379;50.962;6.960;2022-12-18T07:27:12;13.57;;;6.22;;
35245;SDS011;21379;50.962;6.960;2022-12-18T07:29:39;29.92;;;7.75;;
35245;SDS011;21379;50.962;6.960;2022-12-18T07:32:06;18.83;;;7.68;;
35245;SDS011;21379;50.962;6.960;2022-12-18T07:34:33;22.60;;;7.85;;
35245;SDS011;21379;50.962;6.960;2022-12-18T07:37:00;22.30;;;8.93;;
35245;SDS011;21379;50.962;6.960;2022-12-18T07:39:27;15.73;;;6.80;;
35245;SDS011;21379;50.962;6.960;2022-12-18T07:41:55;19.85;;;6.97;;
35245;SDS011;21379;50.962;6.960;2022-12-18T07:44:40;19.20;;;7.57;;
35245;SDS011;21379;50.962;6.960;2022-12-18T07:47:07;11.38;;;6.30;;
35245;SDS011;21379;50.962;6.960;2022-12-18T07:49:33;19.50;;;6.60;;
35245;SDS011;21379;50.962;6.960;2022-12-18T07:52:00;13.45;;;7.43;;
35245;SDS011;21379;50.962;6.960;2022-12-18T07:54:27;13.40;;;6.65;;
35245;SDS011;21379;50.962;6.960;2022-12-18T07:56:55;13.25;;;5.57;;
35245;SDS011;21379;50.962;6.960;2022-12-18T07:59:22;10.98;;;5.88;;
35245;SDS011;21379;50.962;6.960;2022-12-18T08:01:49;18.30;;;7.55;;
35245;SDS011;21379;50.962;6.960;2022-12-18T08:04:16;15.00;;;7.22;;
35245;SDS011;21379;50.962;6.960;2022-12-18T08:06:43;15.65;;;7.32;;
35245;SDS011;21379;50.962;6.960;2022-12-18T08:09:09;20.30;;;6.97;;
35245;SDS011;21379;50.962;6.960;2022-12-18T08:11:36;22.15;;;7.38;;
35245;SDS011;21379;50.962;6.960;2022-12-18T08:14:04;13.45;;;6.22;;
35245;SDS011;21379;50.962;6.960;2022-12-18T08:16:31;10.07;;;5.47;;
35245;SDS011;21379;50.962;6.960;2022-12-18T08:18:58;16.67;;;7.18;;
35245;SDS011;21379;50.962;6.960;2022-12-18T08:21:25;15.07;;;7.10;;
35245;SDS011;21379;50.962;6.960;2022-12-18T08:23:54;12.60;;;6.55;;
35245;SDS011;21379;50.962;6.960;2022-12-18T08:26:22;12.95;;;7.82;;
35245;SDS011;21379;50.962;6.960;2022-12-18T08:28:50;15.05;;;6.32;;
35245;SDS011;21379;50.962;6.960;2022-12-18T08:31:19;14.52;;;7.35;;
35245;SDS011;21379;50.962;6.960;2022-12-18T08:33:47;18.80;;;6.82;;
35245;SDS011;21379;50.962;6.960;2022-12-18T08:36:15;18.15;;;5.60;;
35245;SDS011;21379;50.962;6.960;2022-12-18T08:38:42;17.75;;;7.90;;
35245;SDS011;21379;50.962;6.960;2022-12-18T08:41:10;13.95;;;6.35;;
35245;SDS011;21379;50.962;6.960;2022-12-18T08:43:38;21.52;;;8.27;;
35245;SDS011;21379;50.962;6.960;2022-12-18T08:46:25;9.48;;;5.43;;
35245;SDS011;21379;50.962;6.960;2022-12-18T08:48:53;21.02;;;7.40;;
35245;SDS011;21379;50.962;6.960;2022-12-18T08:51:21;19.92;;;7.53;;
35245;SDS011;21379;50.962;6.960;2022-12-18T08:53:48;20.77;;;7.82;;
35245;SDS011;21379;50.962;6.960;2022-12-18T08:56:14;17.92;;;8.02;;
35245;SDS011;21379;50.962;6.960;2022-12-18T08:58:42;16.20;;;6.53;;
35245;SDS011;21379;50.962;6.960;2022-12-18T09:01:10;18.67;;;7.63;;
35245;SDS011;21379;50.962;6.960;2022-12-18T09:03:39;23.75;;;8.63;;
35245;SDS011;21379;50.962;6.960;2022-12-18T09:06:06;13.88;;;6.88;;
35245;SDS011;21379;50.962;6.960;2022-12-18T09:08:33;17.35;;;7.88;;
35245;SDS011;21379;50.962;6.960;2022-12-18T09:11:01;14.70;;;6.28;;
35245;SDS011;21379;50.962;6.960;2022-12-18T09:13:28;18.55;;;6.88;;
35245;SDS011;21379;50.962;6.960;2022-12-18T09:15:55;16.95;;;6.20;;
35245;SDS011;21379;50.962;6.960;2022-12-18T09:18:22;17.98;;;5.95;;
35245;SDS011;21379;50.962;6.960;2022-12-18T09:20:51;14.05;;;6.40;;
35245;SDS011;21379;50.962;6.960;2022-12-18T09:23:18;16.17;;;7.93;;
35245;SDS011;21379;50.962;6.960;2022-12-18T09:25:45;17.50;;;7.25;;
35245;SDS011;21379;50.962;6.960;2022-12-18T09:28:12;15.77;;;6.07;;
35245;SDS011;21379;50.962;6.960;2022-12-18T09:30:40;17.65;;;6.05;;
35245;SDS011;21379;50.962;6.960;2022-12-18T09:33:09;21.35;;;7.45;;
35245;SDS011;21379;50.962;6.960;2022-12-18T09:35:36;22.73;;;6.97;;
35245;SDS011;21379;50.962;6.960;2022-12-18T09:38:05;19.40;;;7.35;;
35245;SDS011;21379;50.962;6.960;2022-12-18T09:40:34;17.13;;;6.13;;
35245;SDS011;21379;50.962;6.960;2022-12-18T09:43:03;18.10;;;7.22;;
35245;SDS011;21379;50.962;6.960;2022-12-18T09:45:31;19.27;;;6.55;;
35245;SDS011;21379;50.962;6.960;2022-12-18T09:48:08;17.25;;;6.93;;
35245;SDS011;21379;50.962;6.960;2022-12-18T09:50:40;15.35;;;5.85;;
35245;SDS011;21379;50.962;6.960;2022-12-18T09:53:10;12.05;;;6.50;;
35245;SDS011;21379;50.962;6.960;2022-12-18T09:55:42;18.50;;;6.72;;
35245;SDS011;21379;50.962;6.960;2022-12-18T09:58:14;10.75;;;5.60;;
35245;SDS011;21379;50.962;6.960;2022-12-18T10:03:12;20.58;;;7.45;;
35245;SDS011;21379;50.962;6.960;2022-12-18T10:05:41;18.13;;;7.68;;
35245;SDS011;21379;50.962;6.960;2022-12-18T10:08:17;19.95;;;7.20;;
35245;SDS011;21379;50.962;6.960;2022-12-18T11:07:59;10.70;;;5.90;;
35245;SDS011;21379;50.962;6.960;2022-12-18T11:10:28;19.20;;;6.78;;
35245;SDS011;21379;50.962;6.960;2022-12-18T11:13:08;21.58;;;7.63;;
35245;SDS011;21379;50.962;6.960;2022-12-18T11:15:37;17.45;;;6.28;;
35245;SDS011;21379;50.962;6.960;2022-12-18T11:18:14;14.20;;;6.93;;
35245;SDS011;21379;50.962;6.960;2022-12-18T11:20:44;21.38;;;8.35;;
35245;SDS011;21379;50.962;6.960;2022-12-18T11:23:19;19.48;;;6.47;;
35245;SDS011;21379;50.962;6.960;2022-12-18T11:25:56;17.73;;;6.45;;
35245;SDS011;21379;50.962;6.960;2022-12-18T11:31:18;20.35;;;8.98;;
35245;SDS011;21379;50.962;6.960;2022-12-18T11:33:50;22.00;;;8.00;;
35245;SDS011;21379;50.962;6.960;2022-12-18T11:36:24;16.92;;;6.97;;
35245;SDS011;21379;50.962;6.960;2022-12-18T11:38:55;18.42;;;7.57;;
35245;SDS011;21379;50.962;6.960;2022-12-18T11:41:28;23.77;;;7.18;;
35245;SDS011;21379;50.962;6.960;2022-12-18T11:44:18;14.68;;;7.93;;
35245;SDS011;21379;50.962;6.960;2022-12-18T11:46:51;21.98;;;7.10;;
35245;SDS011;21379;50.962;6.960;2022-12-18T11:49:22;18.02;;;7.10;;
35245;SDS011;21379;50.962;6.960;2022-12-18T11:51:53;18.48;;;7.07;;
35245;SDS011;21379;50.962;6.960;2022-12-18T11:54:26;16.23;;;7.82;;
35245;SDS011;21379;50.962;6.960;2022-12-18T11:56:53;16.92;;;7.78;;
35245;SDS011;21379;50.962;6.960;2022-12-18T12:02:00;19.88;;;7.20;;
35245;SDS011;21379;50.962;6.960;2022-12-18T12:04:46;22.95;;;6.93;;
35245;SDS011;21379;50.962;6.960;2022-12-18T12:07:24;23.92;;;9.38;;
35245;SDS011;21379;50.962;6.960;2022-12-18T12:10:06;15.73;;;6.95;;
35245;SDS011;21379;50.962;6.960;2022-12-18T12:12:49;22.20;;;8.35;;
35245;SDS011;21379;50.962;6.960;2022-12-18T12:15:29;13.38;;;6.75;;
35245;SDS011;21379;50.962;6.960;2022-12-18T12:18:05;17.17;;;6.82;;
35245;SDS011;21379;50.962;6.960;2022-12-18T12:20:42;18.08;;;7.88;;
35245;SDS011;21379;50.962;6.960;2022-12-18T12:23:19;28.38;;;9.10;;
35245;SDS011;21379;50.962;6.960;2022-12-18T12:25:53;16.35;;;7.53;;
35245;SDS011;21379;50.962;6.960;2022-12-18T12:28:28;24.27;;;8.88;;
35245;SDS011;21379;50.962;6.960;2022-12-18T12:31:07;24.27;;;9.43;;
35245;SDS011;21379;50.962;6.960;2022-12-18T12:36:13;19.17;;;8.75;;
35245;SDS011;21379;50.962;6.960;2022-12-18T12:41:17;15.15;;;7.53;;
35245;SDS011;21379;50.962;6.960;2022-12-18T12:44:05;13.32;;;6.55;;
35245;SDS011;21379;50.962;6.960;2022-12-18T12:46:36;19.90;;;8.38;;
35245;SDS011;21379;50.962;6.960;2022-12-18T12:49:08;21.40;;;9.02;;
35245;SDS011;21379;50.962;6.960;2022-12-18T12:51:39;22.50;;;8.30;;
35245;SDS011;21379;50.962;6.960;2022-12-18T12:54:11;29.27;;;9.48;;
35245;SDS011;21379;50.962;6.960;2022-12-18T12:56:44;29.33;;;9.73;;
35245;SDS011;21379;50.962;6.960;2022-12-18T12:59:18;23.67;;;8.10;;
35245;SDS011;21379;50.962;6.960;2022-12-18T13:01:52;25.17;;;8.63;;
35245;SDS011;21379;50.962;6.960;2022-12-18T13:04:23;28.45;;;8.43;;
35245;SDS011;21379;50.962;6.960;2022-12-18T13:06:59;19.25;;;8.68;;
35245;SDS011;21379;50.962;6.960;2022-12-18T13:09:30;20.80;;;8.13;;
35245;SDS011;21379;50.962;6.960;2022-12-18T13:12:03;22.58;;;9.18;;
35245;SDS011;21379;50.962;6.960;2022-12-18T13:14:48;18.52;;;7.57;;
35245;SDS011;21379;50.962;6.960;2022-12-18T13:20:04;17.25;;;7.93;;
35245;SDS011;21379;50.962;6.960;2022-12-18T13:22:34;25.63;;;10.00;;
35245;SDS011;21379;50.962;6.960;2022-12-18T13:25:03;20.58;;;8.85;;
35245;SDS011;21379;50.962;6.960;2022-12-18T13:27:47;26.15;;;8.25;;
35245;SDS011;21379;50.962;6.960;2022-12-18T13:30:43;30.88;;;11.32;;
35245;SDS011;21379;50.962;6.960;2022-12-18T13:33:37;21.02;;;8.27;;
35245;SDS011;21379;50.962;6.960;2022-12-18T13:36:12;22.15;;;9.48;;
35245;SDS011;21379;50.962;6.960;2022-12-18T13:38:42;21.25;;;9.98;;
35245;SDS011;21379;50.962;6.960;2022-12-18T13:44:10;31.42;;;10.80;;
35245;SDS011;21379;50.962;6.960;2022-12-18T13:46:42;25.10;;;10.77;;
35245;SDS011;21379;50.962;6.960;2022-12-18T13:49:16;27.08;;;11.70;;
35245;SDS011;21379;50.962;6.960;2022-12-18T13:51:49;17.23;;;8.00;;
35245;SDS011;21379;50.962;6.960;2022-12-18T13:54:18;36.78;;;9.73;;
35245;SDS011;21379;50.962;6.960;2022-12-18T13:56:47;18.80;;;9.82;;
35245;SDS011;21379;50.962;6.960;2022-12-18T13:59:17;31.52;;;11.10;;
35245;SDS011;21379;50.962;6.960;2022-12-18T14:01:47;25.70;;;9.57;;
35245;SDS011;21379;50.962;6.960;2022-12-18T14:04:19;22.88;;;8.88;;
35245;SDS011;21379;50.962;6.960;2022-12-18T14:06:49;23.77;;;9.68;;
35245;SDS011;21379;50.962;6.960;2022-12-18T14:09:20;27.35;;;8.77;;
35245;SDS011;21379;50.962;6.960;2022-12-18T14:11:50;24.27;;;10.05;;
35245;SDS011;21379;50.962;6.960;2022-12-18T14:14:19;27.40;;;9.35;;
35245;SDS011;21379;50.962;6.960;2022-12-18T14:16:46;23.15;;;9.57;;
35245;SDS011;21379;50.962;6.960;2022-12-18T14:19:14;28.50;;;10.60;;
35245;SDS011;21379;50.962;6.960;2022-12-18T14:21:46;32.42;;;10.43;;
35245;SDS011;21379;50.962;6.960;2022-12-18T14:24:14;22.75;;;9.60;;
35245;SDS011;21379;50.962;6.960;2022-12-18T14:26:43;22.55;;;9.52;;
35245;SDS011;21379;50.962;6.960;2022-12-18T14:29:21;35.33;;;12.48;;
35245;SDS011;21379;50.962;6.960;2022-12-18T14:32:10;38.22;;;12.38;;
35245;SDS011;21379;50.962;6.960;2022-12-18T14:34:42;23.15;;;10.68;;
35245;SDS011;21379;50.962;6.960;2022-12-18T14:37:09;32.38;;;10.07;;
35245;SDS011;21379;50.962;6.960;2022-12-18T14:39:37;29.70;;;11.93;;
35245;SDS011;21379;50.962;6.960;2022-12-18T14:42:05;33.20;;;10.95;;
35245;SDS011;21379;50.962;6.960;2022-12-18T14:44:33;31.50;;;11.88;;
35245;SDS011;21379;50.962;6.960;2022-12-18T14:47:00;20.98;;;9.55;;
35245;SDS011;21379;50.962;6.960;2022-12-18T14:49:28;21.83;;;9.57;;
35245;SDS011;21379;50.962;6.960;2022-12-18T14:51:57;29.60;;;8.60;;
35245;SDS011;21379;50.962;6.960;2022-12-18T14:54:26;25.70;;;10.60;;
35245;SDS011;21379;50.962;6.960;2022-12-18T14:56:55;21.95;;;9.27;;
35245;SDS011;21379;50.962;6.960;2022-12-18T14:59:26;27.80;;;10.20;;
35245;SDS011;21379;50.962;6.960;2022-12-18T15:02:01;33.78;;;10.68;;
35245;SDS011;21379;50.962;6.960;2022-12-18T15:04:31;30.13;;;12.30;;
35245;SDS011;21379;50.962;6.960;2022-12-18T15:07:04;28.90;;;11.07;;
35245;SDS011;21379;50.962;6.960;2022-12-18T15:09:33;34.78;;;12.77;;
35245;SDS011;21379;50.962;6.960;2022-12-18T15:12:00;31.42;;;12.15;;
35245;SDS011;21379;50.962;6.960;2022-12-18T15:14:31;30.35;;;11.27;;
35245;SDS011;21379;50.962;6.960;2022-12-18T15:17:03;25.33;;;11.20;;
35245;SDS011;21379;50.962;6.960;2022-12-18T15:19:33;28.17;;;10.18;;
35245;SDS011;21379;50.962;6.960;2022-12-18T15:22:04;23.83;;;11.10;;
35245;SDS011;21379;50.962;6.960;2022-12-18T15:24:41;30.92;;;11.82;;
35245;SDS011;21379;50.962;6.960;2022-12-18T15:27:18;24.63;;;9.27;;
35245;SDS011;21379;50.962;6.960;2022-12-18T15:29:58;29.92;;;11.20;;
35245;SDS011;21379;50.962;6.960;2022-12-18T15:32:28;30.05;;;11.43;;
35245;SDS011;21379;50.962;6.960;2022-12-18T15:35:02;29.30;;;11.07;;
35245;SDS011;21379;50.962;6.960;2022-12-18T15:37:29;25.92;;;11.55;;
35245;SDS011;21379;50.962;6.960;2022-12-18T15:39:56;31.50;;;10.60;;
35245;SDS011;21379;50.962;6.960;2022-12-18T15:42:23;26.42;;;11.27;;
35245;SDS011;21379;50.962;6.960;2022-12-18T15:45:10;30.20;;;10.73;;
35245;SDS011;21379;50.962;6.960;2022-12-18T15:47:39;27.88;;;11.60;;
35245;SDS011;21379;50.962;6.960;2022-12-18T15:50:07;33.58;;;12.20;;
35245;SDS011;21379;50.962;6.960;2022-12-18T15:52:36;23.38;;;11.18;;
35245;SDS011;21379;50.962;6.960;2022-12-18T15:55:08;26.98;;;11.15;;
35245;SDS011;21379;50.962;6.960;2022-12-18T15:57:55;27.23;;;11.98;;
35245;SDS011;21379;50.962;6.960;2022-12-18T16:00:22;30.85;;;11.73;;
35245;SDS011;21379;50.962;6.960;2022-12-18T16:02:50;29.67;;;14.15;;
35245;SDS011;21379;50.962;6.960;2022-12-18T16:05:18;35.80;;;12.50;;
35245;SDS011;21379;50.962;6.960;2022-12-18T16:07:46;28.40;;;10.75;;
35245;SDS011;21379;50.962;6.960;2022-12-18T16:10:13;35.97;;;13.43;;